sensor_id;sensor_type;location;lat;lon;timestamp;pressure;altitude;pressure_sealevel;temperature;humidity
44839;BME280;30576;42.098;24.876;2023-10-09T00:00:59;99934.72;;;23.18;38.13
44839;BME280;30576;42.098;24.876;2023-10-09T00:03:29;99946.22;;;23.05;38.46
44839;BME280;30576;42.098;24.876;2023-10-09T00:05:55;99967.09;;;23.31;38.24
44839;BME280;30576;42.098;24.876;2023-10-09T00:08:21;99961.63;;;23.18;38.31
44839;BME280;30576;42.098;24.876;2023-10-09T00:10:51;99921.63;;;22.83;38.80
44839;BME280;30576;42.098;24.876;2023-10-09T00:13:26;99978.34;;;23.23;38.51
44839;BME280;30576;42.098;24.876;2023-10-09T00:16:04;99957.38;;;22.99;38.61
44839;BME280;30576;42.098;24.876;2023-10-09T00:18:41;99979.31;;;23.22;38.59
44839;BME280;30576;42.098;24.876;2023-10-09T00:21:19;99977.22;;;23.13;38.64
44839;BME280;30576;42.098;24.876;2023-10-09T00:23:50;99979.19;;;23.09;38.87
44839;BME280;30576;42.098;24.876;2023-10-09T00:26:21;99947.38;;;23.01;38.67
44839;BME280;30576;42.098;24.876;2023-10-09T00:28:48;99979.56;;;23.03;38.86
44839;BME280;30576;42.098;24.876;2023-10-09T00:31:17;99963.59;;;22.71;39.41
44839;BME280;30576;42.098;24.876;2023-10-09T00:33:52;99977.25;;;22.68;39.84
44839;BME280;30576;42.098;24.876;2023-10-09T00:36:20;99985.50;;;22.94;39.73
44839;BME280;30576;42.098;24.876;2023-10-09T00:38:52;99985.88;;;22.87;40.01
44839;BME280;30576;42.098;24.876;2023-10-09T00:41:18;99987.38;;;22.63;40.54
44839;BME280;30576;42.098;24.876;2023-10-09T00:43:47;99985.13;;;22.71;40.24
44839;BME280;30576;42.098;24.876;2023-10-09T00:46:16;99979.69;;;22.57;40.19
44839;BME280;30576;42.098;24.876;2023-10-09T00:48:53;99969.19;;;22.38;40.32
44839;BME280;30576;42.098;24.876;2023-10-09T00:51:20;99966.63;;;22.20;40.21
44839;BME280;30576;42.098;24.876;2023-10-09T00:53:54;99999.31;;;22.12;40.58
44839;BME280;30576;42.098;24.876;2023-10-09T00:56:22;99997.56;;;22.11;40.62
44839;BME280;30576;42.098;24.876;2023-10-09T00:58:57;100002.16;;;21.93;40.65
44839;BME280;30576;42.098;24.876;2023-10-09T01:01:40;99969.28;;;21.74;40.87
44839;BME280;30576;42.098;24.876;2023-10-09T01:04:10;99982.16;;;21.67;41.28
44839;BME280;30576;42.098;24.876;2023-10-09T01:06:41;99984.09;;;21.65;41.44
44839;BME280;30576;42.098;24.876;2023-10-09T01:09:14;99998.00;;;21.72;41.40
44839;BME280;30576;42.098;24.876;2023-10-09T01:11:41;99998.50;;;21.46;41.74
44839;BME280;30576;42.098;24.876;2023-10-09T01:14:15;99997.50;;;21.49;41.80
44839;BME280;30576;42.098;24.876;2023-10-09T01:16:40;99998.66;;;21.43;42.21
44839;BME280;30576;42.098;24.876;2023-10-09T01:19:07;100029.97;;;21.60;42.15
44839;BME280;30576;42.098;24.876;2023-10-09T01:21:45;100022.75;;;21.45;42.26
44839;BME280;30576;42.098;24.876;2023-10-09T01:24:10;99995.16;;;21.25;42.61
44839;BME280;30576;42.098;24.876;2023-10-09T01:26:37;100020.03;;;21.29;43.04
44839;BME280;30576;42.098;24.876;2023-10-09T01:29:14;100031.88;;;21.58;42.24
44839;BME280;30576;42.098;24.876;2023-10-09T01:31:43;100052.84;;;21.84;41.88
44839;BME280;30576;42.098;24.876;2023-10-09T01:34:33;100060.34;;;21.61;42.38
44839;BME280;30576;42.098;24.876;2023-10-09T01:37:19;100071.00;;;21.62;42.01
44839;BME280;30576;42.098;24.876;2023-10-09T01:39:55;100062.53;;;21.54;41.86
44839;BME280;30576;42.098;24.876;2023-10-09T01:42:23;100061.41;;;21.58;41.93
44839;BME280;30576;42.098;24.876;2023-10-09T01:45:11;100082.47;;;21.66;42.07
44839;BME280;30576;42.098;24.876;2023-10-09T01:47:36;100045.72;;;21.51;41.73
44839;BME280;30576;42.098;24.876;2023-10-09T01:50:06;100032.31;;;21.33;42.05
44839;BME280;30576;42.098;24.876;2023-10-09T01:52:38;100086.75;;;21.53;42.68
44839;BME280;30576;42.098;24.876;2023-10-09T01:55:04;100080.69;;;21.32;43.10
44839;BME280;30576;42.098;24.876;2023-10-09T01:57:52;100080.94;;;21.27;42.68
44839;BME280;30576;42.098;24.876;2023-10-09T02:00:18;100102.69;;;20.87;42.97
44839;BME280;30576;42.098;24.876;2023-10-09T02:02:48;100135.97;;;20.09;46.43
44839;BME280;30576;42.098;24.876;2023-10-09T02:05:16;100105.75;;;19.48;47.72
44839;BME280;30576;42.098;24.876;2023-10-09T02:07:42;100131.81;;;18.59;49.43
44839;BME280;30576;42.098;24.876;2023-10-09T02:10:19;100148.09;;;18.07;50.73
44839;BME280;30576;42.098;24.876;2023-10-09T02:12:56;100160.91;;;17.74;51.53
44839;BME280;30576;42.098;24.876;2023-10-09T02:15:29;100160.66;;;17.56;52.04
44839;BME280;30576;42.098;24.876;2023-10-09T02:18:11;100184.53;;;17.59;51.72
44839;BME280;30576;42.098;24.876;2023-10-09T02:20:43;100107.03;;;17.15;51.27
44839;BME280;30576;42.098;24.876;2023-10-09T02:23:12;100193.28;;;17.12;51.76
44839;BME280;30576;42.098;24.876;2023-10-09T02:25:46;100181.16;;;16.75;52.00
44839;BME280;30576;42.098;24.876;2023-10-09T02:28:12;100198.22;;;16.70;51.74
44839;BME280;30576;42.098;24.876;2023-10-09T02:30:44;100240.72;;;16.73;51.18
44839;BME280;30576;42.098;24.876;2023-10-09T02:33:16;100184.16;;;16.38;50.85
44839;BME280;30576;42.098;24.876;2023-10-09T02:35:56;100214.53;;;16.59;50.86
44839;BME280;30576;42.098;24.876;2023-10-09T02:38:27;100205.53;;;16.35;50.81
44839;BME280;30576;42.098;24.876;2023-10-09T02:40:53;100246.44;;;16.32;50.61
44839;BME280;30576;42.098;24.876;2023-10-09T02:43:32;100260.50;;;16.36;50.33
44839;BME280;30576;42.098;24.876;2023-10-09T02:46:13;100256.66;;;16.16;50.61
44839;BME280;30576;42.098;24.876;2023-10-09T02:48:46;100289.19;;;16.26;49.93
44839;BME280;30576;42.098;24.876;2023-10-09T02:51:19;100266.78;;;16.03;49.95
44839;BME280;30576;42.098;24.876;2023-10-09T02:54:02;100274.94;;;15.97;50.36
44839;BME280;30576;42.098;24.876;2023-10-09T02:56:52;100306.03;;;15.95;50.00
44839;BME280;30576;42.098;24.876;2023-10-09T02:59:34;100325.00;;;15.83;50.37
44839;BME280;30576;42.098;24.876;2023-10-09T03:02:02;100282.59;;;15.42;51.05
44839;BME280;30576;42.098;24.876;2023-10-09T03:04:28;100299.44;;;15.75;50.37
44839;BME280;30576;42.098;24.876;2023-10-09T03:06:59;100321.53;;;15.79;50.29
44839;BME280;30576;42.098;24.876;2023-10-09T03:09:26;100306.94;;;15.60;50.92
44839;BME280;30576;42.098;24.876;2023-10-09T03:11:59;100327.13;;;15.68;50.67
44839;BME280;30576;42.098;24.876;2023-10-09T03:14:30;100327.44;;;15.56;50.67
44839;BME280;30576;42.098;24.876;2023-10-09T03:16:57;100319.38;;;15.59;50.62
44839;BME280;30576;42.098;24.876;2023-10-09T03:19:25;100305.75;;;15.71;49.79
44839;BME280;30576;42.098;24.876;2023-10-09T03:21:52;100340.06;;;15.48;50.47
44839;BME280;30576;42.098;24.876;2023-10-09T03:24:17;100327.81;;;15.40;50.80
44839;BME280;30576;42.098;24.876;2023-10-09T03:26:45;100328.56;;;15.46;50.52
44839;BME280;30576;42.098;24.876;2023-10-09T03:29:11;100337.47;;;15.81;49.41
44839;BME280;30576;42.098;24.876;2023-10-09T03:31:39;100324.19;;;15.45;49.66
44839;BME280;30576;42.098;24.876;2023-10-09T03:34:07;100328.72;;;15.39;49.75
44839;BME280;30576;42.098;24.876;2023-10-09T03:36:35;100354.06;;;15.18;49.67
44839;BME280;30576;42.098;24.876;2023-10-09T03:39:07;100368.16;;;15.20;50.58
44839;BME280;30576;42.098;24.876;2023-10-09T03:41:52;100339.13;;;15.13;49.82
44839;BME280;30576;42.098;24.876;2023-10-09T03:44:19;100344.88;;;15.30;49.28
44839;BME280;30576;42.098;24.876;2023-10-09T03:46:45;100367.75;;;15.37;48.62
44839;BME280;30576;42.098;24.876;2023-10-09T03:49:11;100369.34;;;15.46;48.72
44839;BME280;30576;42.098;24.876;2023-10-09T03:51:38;100369.50;;;15.40;48.42
44839;BME280;30576;42.098;24.876;2023-10-09T03:54:05;100383.81;;;15.33;48.97
44839;BME280;30576;42.098;24.876;2023-10-09T03:56:33;100339.25;;;15.07;48.45
44839;BME280;30576;42.098;24.876;2023-10-09T03:59:00;100411.41;;;15.66;48.42
44839;BME280;30576;42.098;24.876;2023-10-09T04:01:26;100401.06;;;15.54;48.36
44839;BME280;30576;42.098;24.876;2023-10-09T04:04:00;100415.66;;;15.36;48.18
44839;BME280;30576;42.098;24.876;2023-10-09T04:06:30;100408.53;;;15.36;47.33
44839;BME280;30576;42.098;24.876;2023-10-09T04:09:01;100388.00;;;15.04;47.18
44839;BME280;30576;42.098;24.876;2023-10-09T04:11:59;100389.88;;;15.00;46.33
44839;BME280;30576;42.098;24.876;2023-10-09T04:14:40;100393.28;;;14.65;46.89
44839;BME280;30576;42.098;24.876;2023-10-09T04:17:21;100401.25;;;14.65;47.39
44839;BME280;30576;42.098;24.876;2023-10-09T04:19:47;100445.72;;;14.97;46.25
44839;BME280;30576;42.098;24.876;2023-10-09T04:22:36;100420.75;;;15.06;45.76
44839;BME280;30576;42.098;24.876;2023-10-09T04:25:08;100445.16;;;15.24;45.69
44839;BME280;30576;42.098;24.876;2023-10-09T04:27:40;100436.63;;;15.09;45.70
44839;BME280;30576;42.098;24.876;2023-10-09T04:30:06;100438.28;;;15.13;45.09
44839;BME280;30576;42.098;24.876;2023-10-09T04:32:33;100457.06;;;15.06;45.79
44839;BME280;30576;42.098;24.876;2023-10-09T04:35:00;100403.47;;;14.86;45.15
44839;BME280;30576;42.098;24.876;2023-10-09T04:38:01;100474.38;;;15.25;44.65
44839;BME280;30576;42.098;24.876;2023-10-09T04:40:31;100458.31;;;15.30;44.96
44839;BME280;30576;42.098;24.876;2023-10-09T04:43:03;100425.47;;;14.92;44.92
44839;BME280;30576;42.098;24.876;2023-10-09T04:45:36;100434.06;;;15.04;44.72
44839;BME280;30576;42.098;24.876;2023-10-09T04:48:07;100474.66;;;15.11;44.39
44839;BME280;30576;42.098;24.876;2023-10-09T04:50:34;100445.84;;;15.32;44.27
44839;BME280;30576;42.098;24.876;2023-10-09T04:52:59;100460.78;;;15.39;43.96
44839;BME280;30576;42.098;24.876;2023-10-09T04:55:45;100485.69;;;15.33;43.97
44839;BME280;30576;42.098;24.876;2023-10-09T04:58:20;100476.16;;;15.25;44.07
44839;BME280;30576;42.098;24.876;2023-10-09T05:00:49;100471.22;;;15.08;44.39
44839;BME280;30576;42.098;24.876;2023-10-09T05:03:24;100469.91;;;14.83;44.61
44839;BME280;30576;42.098;24.876;2023-10-09T05:05:53;100469.81;;;14.88;44.92
44839;BME280;30576;42.098;24.876;2023-10-09T05:08:28;100474.69;;;14.66;44.43
44839;BME280;30576;42.098;24.876;2023-10-09T05:13:35;100446.59;;;14.53;44.29
44839;BME280;30576;42.098;24.876;2023-10-09T05:16:06;100485.34;;;14.64;42.97
44839;BME280;30576;42.098;24.876;2023-10-09T05:18:39;100472.25;;;14.54;42.82
44839;BME280;30576;42.098;24.876;2023-10-09T05:21:05;100520.63;;;14.71;42.01
44839;BME280;30576;42.098;24.876;2023-10-09T05:23:49;100505.84;;;14.55;41.22
44839;BME280;30576;42.098;24.876;2023-10-09T05:26:34;100513.75;;;14.58;41.76
44839;BME280;30576;42.098;24.876;2023-10-09T05:31:57;100499.44;;;14.68;41.47
44839;BME280;30576;42.098;24.876;2023-10-09T05:34:29;100497.69;;;14.65;41.52
44839;BME280;30576;42.098;24.876;2023-10-09T05:37:14;100475.09;;;14.43;42.43
44839;BME280;30576;42.098;24.876;2023-10-09T05:39:54;100514.63;;;14.60;43.21
44839;BME280;30576;42.098;24.876;2023-10-09T05:42:30;100499.78;;;14.48;42.01
44839;BME280;30576;42.098;24.876;2023-10-09T05:45:17;100536.84;;;14.54;42.93
44839;BME280;30576;42.098;24.876;2023-10-09T05:50:28;100548.19;;;14.64;41.77
44839;BME280;30576;42.098;24.876;2023-10-09T05:52:56;100500.50;;;14.56;41.62
44839;BME280;30576;42.098;24.876;2023-10-09T05:55:31;100512.84;;;14.59;41.89
44839;BME280;30576;42.098;24.876;2023-10-09T05:58:11;100548.78;;;14.80;41.06
44839;BME280;30576;42.098;24.876;2023-10-09T06:00:55;100544.41;;;14.77;41.04
44839;BME280;30576;42.098;24.876;2023-10-09T06:03:39;100554.09;;;14.80;41.55
44839;BME280;30576;42.098;24.876;2023-10-09T06:06:14;100582.94;;;15.00;41.16
44839;BME280;30576;42.098;24.876;2023-10-09T06:11:44;100561.72;;;14.47;41.53
44839;BME280;30576;42.098;24.876;2023-10-09T06:14:19;100585.69;;;14.42;41.48
44839;BME280;30576;42.098;24.876;2023-10-09T06:17:11;100594.31;;;14.57;41.58
44839;BME280;30576;42.098;24.876;2023-10-09T06:19:37;100610.59;;;14.90;41.57
44839;BME280;30576;42.098;24.876;2023-10-09T06:22:09;100580.00;;;14.67;41.22
44839;BME280;30576;42.098;24.876;2023-10-09T06:24:41;100567.97;;;14.44;41.17
44839;BME280;30576;42.098;24.876;2023-10-09T06:27:11;100602.13;;;14.67;41.15
44839;BME280;30576;42.098;24.876;2023-10-09T06:29:42;100598.69;;;14.58;41.45
44839;BME280;30576;42.098;24.876;2023-10-09T06:32:11;100648.41;;;15.02;40.47
44839;BME280;30576;42.098;24.876;2023-10-09T06:34:49;100630.34;;;14.73;40.92
44839;BME280;30576;42.098;24.876;2023-10-09T06:37:21;100636.56;;;14.72;41.37
44839;BME280;30576;42.098;24.876;2023-10-09T06:39:55;100655.41;;;15.08;40.96
44839;BME280;30576;42.098;24.876;2023-10-09T06:42:27;100660.91;;;14.99;40.55
44839;BME280;30576;42.098;24.876;2023-10-09T06:45:00;100618.34;;;15.00;41.49
44839;BME280;30576;42.098;24.876;2023-10-09T06:47:29;100620.31;;;14.91;41.22
44839;BME280;30576;42.098;24.876;2023-10-09T06:50:07;100636.94;;;15.00;41.46
44839;BME280;30576;42.098;24.876;2023-10-09T06:52:58;100654.00;;;15.37;40.98
44839;BME280;30576;42.098;24.876;2023-10-09T06:55:39;100671.81;;;15.30;40.66
44839;BME280;30576;42.098;24.876;2023-10-09T06:58:18;100670.72;;;15.42;41.01
44839;BME280;30576;42.098;24.876;2023-10-09T07:00:55;100645.13;;;15.36;40.91
44839;BME280;30576;42.098;24.876;2023-10-09T07:03:27;100644.03;;;15.47;40.71
44839;BME280;30576;42.098;24.876;2023-10-09T07:06:10;100701.41;;;16.04;40.45
44839;BME280;30576;42.098;24.876;2023-10-09T07:08:55;100668.06;;;16.26;40.12
44839;BME280;30576;42.098;24.876;2023-10-09T07:11:35;100661.44;;;16.07;39.30
44839;BME280;30576;42.098;24.876;2023-10-09T07:14:08;100627.91;;;15.56;39.42
44839;BME280;30576;42.098;24.876;2023-10-09T07:16:50;100672.63;;;16.21;39.95
44839;BME280;30576;42.098;24.876;2023-10-09T07:19:34;100615.53;;;15.96;39.25
44839;BME280;30576;42.098;24.876;2023-10-09T07:22:01;100658.06;;;15.97;39.12
44839;BME280;30576;42.098;24.876;2023-10-09T07:24:30;100680.09;;;16.05;39.23
44839;BME280;30576;42.098;24.876;2023-10-09T07:27:12;100680.63;;;15.81;39.89
44839;BME280;30576;42.098;24.876;2023-10-09T07:29:41;100700.03;;;16.25;39.73
44839;BME280;30576;42.098;24.876;2023-10-09T07:32:16;100667.13;;;16.29;39.33
44839;BME280;30576;42.098;24.876;2023-10-09T07:34:51;100700.00;;;16.26;39.22
44839;BME280;30576;42.098;24.876;2023-10-09T07:37:27;100672.19;;;16.41;39.15
44839;BME280;30576;42.098;24.876;2023-10-09T07:40:04;100651.19;;;16.65;38.36
44839;BME280;30576;42.098;24.876;2023-10-09T07:42:33;100676.47;;;17.19;37.72
44839;BME280;30576;42.098;24.876;2023-10-09T07:45:02;100705.41;;;17.00;38.15
44839;BME280;30576;42.098;24.876;2023-10-09T07:47:50;100706.63;;;16.85;39.12
44839;BME280;30576;42.098;24.876;2023-10-09T07:50:25;100674.16;;;16.33;39.67
44839;BME280;30576;42.098;24.876;2023-10-09T07:52:59;100626.13;;;16.38;38.83
44839;BME280;30576;42.098;24.876;2023-10-09T07:55:40;100609.03;;;16.09;39.29
44839;BME280;30576;42.098;24.876;2023-10-09T07:58:13;100652.16;;;16.62;39.04
44839;BME280;30576;42.098;24.876;2023-10-09T08:00:38;100710.22;;;17.53;38.45
44839;BME280;30576;42.098;24.876;2023-10-09T08:03:24;100676.75;;;17.43;38.05
44839;BME280;30576;42.098;24.876;2023-10-09T08:05:59;100603.78;;;17.44;37.22
44839;BME280;30576;42.098;24.876;2023-10-09T08:08:43;100663.94;;;18.17;36.82
44839;BME280;30576;42.098;24.876;2023-10-09T08:11:30;100663.81;;;18.48;36.43
44839;BME280;30576;42.098;24.876;2023-10-09T08:14:12;100600.94;;;18.38;35.88
44839;BME280;30576;42.098;24.876;2023-10-09T08:16:56;100647.94;;;18.70;35.80
44839;BME280;30576;42.098;24.876;2023-10-09T08:19:42;100629.28;;;18.15;36.05
44839;BME280;30576;42.098;24.876;2023-10-09T08:22:28;100620.69;;;18.87;35.93
44839;BME280;30576;42.098;24.876;2023-10-09T08:24:53;100624.75;;;18.99;35.15
44839;BME280;30576;42.098;24.876;2023-10-09T08:27:34;100609.91;;;19.16;35.24
44839;BME280;30576;42.098;24.876;2023-10-09T08:30:00;100620.50;;;19.19;35.70
44839;BME280;30576;42.098;24.876;2023-10-09T08:32:45;100640.16;;;19.66;34.64
44839;BME280;30576;42.098;24.876;2023-10-09T08:35:30;100608.13;;;19.40;34.48
44839;BME280;30576;42.098;24.876;2023-10-09T08:37:57;100592.41;;;19.30;35.33
44839;BME280;30576;42.098;24.876;2023-10-09T08:40:34;100602.31;;;19.28;34.96
44839;BME280;30576;42.098;24.876;2023-10-09T08:43:15;100592.84;;;19.43;35.13
44839;BME280;30576;42.098;24.876;2023-10-09T08:46:00;100621.19;;;19.24;35.99
44839;BME280;30576;42.098;24.876;2023-10-09T08:48:27;100625.28;;;19.34;36.01
44839;BME280;30576;42.098;24.876;2023-10-09T08:50:55;100597.13;;;19.24;35.70
44839;BME280;30576;42.098;24.876;2023-10-09T08:53:22;100599.16;;;19.17;35.97
44839;BME280;30576;42.098;24.876;2023-10-09T08:55:49;100585.28;;;19.31;36.63
44839;BME280;30576;42.098;24.876;2023-10-09T08:58:17;100587.84;;;19.09;36.39
44839;BME280;30576;42.098;24.876;2023-10-09T09:01:02;100611.09;;;19.07;36.65
44839;BME280;30576;42.098;24.876;2023-10-09T09:03:41;100603.72;;;19.39;36.58
44839;BME280;30576;42.098;24.876;2023-10-09T09:06:10;100580.16;;;19.48;36.29
44839;BME280;30576;42.098;24.876;2023-10-09T09:08:37;100628.09;;;19.78;36.59
44839;BME280;30576;42.098;24.876;2023-10-09T09:11:07;100593.94;;;19.61;36.38
44839;BME280;30576;42.098;24.876;2023-10-09T09:13:45;100595.38;;;19.23;36.97
44839;BME280;30576;42.098;24.876;2023-10-09T09:16:24;100547.78;;;18.82;37.30
44839;BME280;30576;42.098;24.876;2023-10-09T09:19:04;100599.22;;;19.16;37.13
44839;BME280;30576;42.098;24.876;2023-10-09T09:21:31;100593.53;;;19.25;37.00
44839;BME280;30576;42.098;24.876;2023-10-09T09:24:02;100574.88;;;19.23;37.16
44839;BME280;30576;42.098;24.876;2023-10-09T09:26:39;100554.91;;;19.32;37.97
44839;BME280;30576;42.098;24.876;2023-10-09T09:29:11;100637.31;;;20.17;36.77
44839;BME280;30576;42.098;24.876;2023-10-09T09:31:36;100589.41;;;20.09;36.18
44839;BME280;30576;42.098;24.876;2023-10-09T09:34:08;100588.38;;;19.91;35.95
44839;BME280;30576;42.098;24.876;2023-10-09T09:36:53;100589.28;;;19.43;37.14
44839;BME280;30576;42.098;24.876;2023-10-09T09:39:22;100583.56;;;19.52;37.00
44839;BME280;30576;42.098;24.876;2023-10-09T09:41:58;100591.53;;;19.79;36.88
44839;BME280;30576;42.098;24.876;2023-10-09T09:44:33;100540.84;;;19.03;37.14
44839;BME280;30576;42.098;24.876;2023-10-09T09:47:09;100526.91;;;19.19;37.81
44839;BME280;30576;42.098;24.876;2023-10-09T09:49:41;100575.66;;;19.73;36.93
44839;BME280;30576;42.098;24.876;2023-10-09T09:52:07;100599.44;;;19.82;37.38
44839;BME280;30576;42.098;24.876;2023-10-09T09:54:37;100541.06;;;19.68;36.49
44839;BME280;30576;42.098;24.876;2023-10-09T09:57:04;100566.53;;;20.02;36.95
44839;BME280;30576;42.098;24.876;2023-10-09T09:59:41;100521.19;;;19.97;36.54
44839;BME280;30576;42.098;24.876;2023-10-09T10:02:20;100544.75;;;20.32;36.30
44839;BME280;30576;42.098;24.876;2023-10-09T10:04:51;100553.06;;;20.03;36.70
44839;BME280;30576;42.098;24.876;2023-10-09T10:07:18;100487.22;;;19.76;36.74
44839;BME280;30576;42.098;24.876;2023-10-09T10:09:46;100568.06;;;19.85;37.13
44839;BME280;30576;42.098;24.876;2023-10-09T10:12:14;100492.69;;;19.73;36.81
44839;BME280;30576;42.098;24.876;2023-10-09T10:14:59;100501.03;;;20.09;36.30
44839;BME280;30576;42.098;24.876;2023-10-09T10:20:25;100503.53;;;20.14;36.20
44839;BME280;30576;42.098;24.876;2023-10-09T10:23:13;100493.31;;;19.57;36.97
44839;BME280;30576;42.098;24.876;2023-10-09T10:25:42;100478.31;;;19.53;37.01
44839;BME280;30576;42.098;24.876;2023-10-09T10:31:02;100467.66;;;20.18;36.78
44839;BME280;30576;42.098;24.876;2023-10-09T10:36:20;100476.00;;;20.73;35.92
44839;BME280;30576;42.098;24.876;2023-10-09T10:39:03;100442.22;;;20.49;35.74
44839;BME280;30576;42.098;24.876;2023-10-09T10:41:53;100490.09;;;20.98;35.45
44839;BME280;30576;42.098;24.876;2023-10-09T10:44:31;100455.25;;;20.56;35.63
44839;BME280;30576;42.098;24.876;2023-10-09T10:47:09;100442.03;;;20.33;35.82
44839;BME280;30576;42.098;24.876;2023-10-09T10:49:51;100436.56;;;19.93;35.94
44839;BME280;30576;42.098;24.876;2023-10-09T10:52:21;100489.09;;;20.38;35.83
44839;BME280;30576;42.098;24.876;2023-10-09T10:54:46;100478.03;;;20.26;35.83
44839;BME280;30576;42.098;24.876;2023-10-09T10:57:17;100406.44;;;20.09;35.34
44839;BME280;30576;42.098;24.876;2023-10-09T10:59:45;100434.81;;;20.54;35.49
44839;BME280;30576;42.098;24.876;2023-10-09T11:02:11;100400.81;;;20.56;35.23
44839;BME280;30576;42.098;24.876;2023-10-09T11:04:37;100426.59;;;20.79;34.39
44839;BME280;30576;42.098;24.876;2023-10-09T11:07:12;100442.06;;;20.72;34.95
44839;BME280;30576;42.098;24.876;2023-10-09T11:12:29;100399.06;;;20.55;34.74
44839;BME280;30576;42.098;24.876;2023-10-09T11:18:05;100403.91;;;20.47;34.85
44839;BME280;30576;42.098;24.876;2023-10-09T11:20:42;100388.53;;;20.71;34.22
44839;BME280;30576;42.098;24.876;2023-10-09T11:23:21;100372.66;;;20.66;33.77
44839;BME280;30576;42.098;24.876;2023-10-09T11:25:55;100425.22;;;21.08;33.79
44839;BME280;30576;42.098;24.876;2023-10-09T11:28:40;100398.09;;;20.96;33.21
44839;BME280;30576;42.098;24.876;2023-10-09T11:31:15;100365.28;;;20.90;32.64
44839;BME280;30576;42.098;24.876;2023-10-09T11:33:46;100414.56;;;21.26;33.05
44839;BME280;30576;42.098;24.876;2023-10-09T11:36:15;100322.47;;;20.89;33.66
44839;BME280;30576;42.098;24.876;2023-10-09T11:38:41;100394.41;;;21.17;33.58
44839;BME280;30576;42.098;24.876;2023-10-09T11:41:15;100316.34;;;20.47;34.35
44839;BME280;30576;42.098;24.876;2023-10-09T11:43:51;100328.66;;;20.51;33.73
44839;BME280;30576;42.098;24.876;2023-10-09T11:46:19;100340.03;;;20.56;33.99
44839;BME280;30576;42.098;24.876;2023-10-09T11:49:04;100357.09;;;20.93;33.91
44839;BME280;30576;42.098;24.876;2023-10-09T11:51:45;100297.78;;;20.62;33.40
44839;BME280;30576;42.098;24.876;2023-10-09T11:54:31;100320.06;;;20.64;32.59
44839;BME280;30576;42.098;24.876;2023-10-09T11:56:57;100315.72;;;20.80;32.49
44839;BME280;30576;42.098;24.876;2023-10-09T11:59:26;100296.66;;;20.86;32.48
44839;BME280;30576;42.098;24.876;2023-10-09T12:01:52;100337.25;;;21.34;32.26
44839;BME280;30576;42.098;24.876;2023-10-09T12:04:19;100284.66;;;21.13;32.40
44839;BME280;30576;42.098;24.876;2023-10-09T12:06:45;100283.03;;;21.45;31.88
44839;BME280;30576;42.098;24.876;2023-10-09T12:09:11;100300.53;;;21.54;31.99
44839;BME280;30576;42.098;24.876;2023-10-09T12:11:49;100275.78;;;21.47;31.50
44839;BME280;30576;42.098;24.876;2023-10-09T12:14:18;100248.94;;;21.29;31.57
44839;BME280;30576;42.098;24.876;2023-10-09T12:16:49;100251.63;;;21.12;31.94
44839;BME280;30576;42.098;24.876;2023-10-09T12:19:15;100287.56;;;21.08;32.46
44839;BME280;30576;42.098;24.876;2023-10-09T12:21:41;100271.66;;;20.86;32.26
44839;BME280;30576;42.098;24.876;2023-10-09T12:24:08;100270.44;;;20.93;32.64
44839;BME280;30576;42.098;24.876;2023-10-09T12:26:37;100323.66;;;21.56;32.54
44839;BME280;30576;42.098;24.876;2023-10-09T12:29:05;100226.78;;;21.26;31.87
44839;BME280;30576;42.098;24.876;2023-10-09T12:31:36;100260.66;;;21.63;31.64
44839;BME280;30576;42.098;24.876;2023-10-09T12:34:02;100296.78;;;21.91;31.31
44839;BME280;30576;42.098;24.876;2023-10-09T12:36:28;100263.72;;;21.73;31.60
44839;BME280;30576;42.098;24.876;2023-10-09T12:38:54;100282.03;;;21.82;31.10
44839;BME280;30576;42.098;24.876;2023-10-09T12:41:24;100260.34;;;21.70;31.32
44839;BME280;30576;42.098;24.876;2023-10-09T12:43:58;100274.97;;;21.27;32.07
44839;BME280;30576;42.098;24.876;2023-10-09T12:46:24;100218.69;;;21.08;32.02
44839;BME280;30576;42.098;24.876;2023-10-09T12:48:53;100279.41;;;21.46;32.12
44839;BME280;30576;42.098;24.876;2023-10-09T12:51:25;100207.03;;;21.09;31.80
44839;BME280;30576;42.098;24.876;2023-10-09T12:53:55;100243.56;;;21.47;31.73
44839;BME280;30576;42.098;24.876;2023-10-09T12:56:27;100219.44;;;21.29;31.28
44839;BME280;30576;42.098;24.876;2023-10-09T12:59:03;100226.47;;;21.32;31.84
44839;BME280;30576;42.098;24.876;2023-10-09T13:01:32;100205.13;;;20.94;31.45
44839;BME280;30576;42.098;24.876;2023-10-09T13:04:13;100208.28;;;21.37;31.46
44839;BME280;30576;42.098;24.876;2023-10-09T13:06:45;100203.84;;;21.55;31.14
44839;BME280;30576;42.098;24.876;2023-10-09T13:09:14;100194.06;;;21.70;30.84
44839;BME280;30576;42.098;24.876;2023-10-09T13:11:42;100211.47;;;21.96;31.26
44839;BME280;30576;42.098;24.876;2023-10-09T13:14:11;100186.69;;;21.91;31.14
44839;BME280;30576;42.098;24.876;2023-10-09T13:16:42;100188.47;;;21.75;30.81
44839;BME280;30576;42.098;24.876;2023-10-09T13:19:08;100181.06;;;21.45;31.00
44839;BME280;30576;42.098;24.876;2023-10-09T13:21:37;100166.00;;;21.25;30.90
44839;BME280;30576;42.098;24.876;2023-10-09T13:24:04;100157.47;;;21.52;31.51
44839;BME280;30576;42.098;24.876;2023-10-09T13:26:30;100175.00;;;21.92;30.65
44839;BME280;30576;42.098;24.876;2023-10-09T13:28:58;100142.88;;;21.91;30.47
44839;BME280;30576;42.098;24.876;2023-10-09T13:31:25;100149.50;;;21.84;30.18
44839;BME280;30576;42.098;24.876;2023-10-09T13:33:52;100132.91;;;21.42;30.74
44839;BME280;30576;42.098;24.876;2023-10-09T13:36:24;100135.47;;;21.10;31.29